createdAt,value
2019-03-25T00:01:47.946Z,100453.19
2019-03-25T00:04:20.542Z,100449.34
2019-03-25T00:06:53.503Z,100445.77
2019-03-25T00:09:26.104Z,100453.19
2019-03-25T00:11:58.677Z,100444.19
2019-03-25T00:14:31.260Z,100440.98
2019-03-25T00:17:04.348Z,100440.61
2019-03-25T00:19:37.956Z,100442.38
2019-03-25T00:22:10.994Z,100435.93
2019-03-25T00:24:43.650Z,100429.27
2019-03-25T00:27:16.275Z,100427.53
2019-03-25T00:29:48.871Z,100425.95
2019-03-25T00:32:21.487Z,100425.91
2019-03-25T00:34:54.186Z,100424.19
2019-03-25T00:37:27.010Z,100424.63
2019-03-25T00:39:59.603Z,100420.98
2019-03-25T00:42:32.204Z,100416.02
2019-03-25T00:45:04.907Z,100412.88
2019-03-25T00:47:37.557Z,100409.23
2019-03-25T00:50:10.393Z,100412.14
2019-03-25T00:52:43.056Z,100411.31
2019-03-25T00:55:15.709Z,100402.48
2019-03-25T00:57:48.286Z,100404.19
2019-03-25T01:00:21.589Z,100394.16
2019-03-25T01:02:54.149Z,100396.83
2019-03-25T01:05:26.871Z,100393.89
2019-03-25T01:07:59.800Z,100401.41
2019-03-25T01:10:33.278Z,100391.58
2019-03-25T01:13:05.846Z,100383.53
2019-03-25T01:15:38.447Z,100381.25
2019-03-25T01:18:16.907Z,100375.27
2019-03-25T01:20:45.391Z,100366.21
2019-03-25T01:23:18.250Z,100366.88
2019-03-25T01:25:50.846Z,100365.30
2019-03-25T01:28:23.426Z,100364.06
2019-03-25T01:30:56.002Z,100362.39
2019-03-25T01:33:28.548Z,100357.31
2019-03-25T01:36:01.227Z,100365.59
2019-03-25T01:38:33.987Z,100364.30
2019-03-25T01:41:06.595Z,100349.16
2019-03-25T01:43:39.189Z,100347.78
2019-03-25T01:46:11.756Z,100343.44
2019-03-25T01:48:44.666Z,100338.23
2019-03-25T01:51:18.348Z,100333.08
2019-03-25T01:53:51.269Z,100328.70
2019-03-25T01:56:24.165Z,100326.93
2019-03-25T01:58:56.765Z,100326.16
2019-03-25T02:01:29.344Z,100328.77
2019-03-25T02:04:03.168Z,100324.02
2019-03-25T02:06:35.776Z,100322.78
2019-03-25T02:09:10.383Z,100318.54
2019-03-25T02:11:42.995Z,100320.71
2019-03-25T02:14:15.539Z,100310.81
2019-03-25T02:16:48.415Z,100299.52
2019-03-25T02:19:20.982Z,100301.23
2019-03-25T02:21:53.556Z,100295.61
2019-03-25T02:24:26.528Z,100292.77
2019-03-25T02:26:59.147Z,100289.00
2019-03-25T02:29:31.734Z,100286.79
2019-03-25T02:32:04.366Z,100280.87
2019-03-25T02:34:38.212Z,100280.61
2019-03-25T02:37:10.794Z,100275.09
2019-03-25T02:39:43.403Z,100271.78
2019-03-25T02:42:16.047Z,100268.84
2019-03-25T02:44:48.688Z,100268.91
2019-03-25T02:47:21.689Z,100261.16
2019-03-25T02:49:54.399Z,100263.39
2019-03-25T02:52:26.982Z,100255.18
2019-03-25T02:54:59.890Z,100248.20
2019-03-25T02:57:32.970Z,100242.28
2019-03-25T03:00:07.509Z,100240.68
2019-03-25T03:02:40.198Z,100234.77
2019-03-25T03:05:13.085Z,100228.32
2019-03-25T03:07:45.713Z,100225.02
2019-03-25T03:10:18.477Z,100225.58
2019-03-25T03:12:51.156Z,100222.07
2019-03-25T03:15:23.835Z,100225.98
2019-03-25T03:17:56.471Z,100218.62
2019-03-25T03:20:29.079Z,100217.63
2019-03-25T03:23:01.693Z,100215.50
2019-03-25T03:25:34.949Z,100212.42
2019-03-25T03:28:07.841Z,100207.61
2019-03-25T03:30:40.814Z,100201.57
2019-03-25T03:33:13.761Z,100201.17
2019-03-25T03:35:46.752Z,100192.59
2019-03-25T03:38:19.624Z,100193.48
2019-03-25T03:40:52.388Z,100191.02
2019-03-25T03:43:24.965Z,100198.06
2019-03-25T03:45:57.587Z,100190.31
2019-03-25T03:48:30.315Z,100186.94
2019-03-25T03:51:03.671Z,100181.80
2019-03-25T03:53:36.605Z,100178.73
2019-03-25T03:56:13.231Z,100181.27
2019-03-25T03:58:46.148Z,100182.13
2019-03-25T04:01:18.794Z,100183.50
2019-03-25T04:03:51.366Z,100188.64
2019-03-25T04:06:23.966Z,100188.58
2019-03-25T04:08:56.516Z,100183.80
2019-03-25T04:11:29.421Z,100178.93
2019-03-25T04:14:02.377Z,100156.69
2019-03-25T04:16:36.089Z,100172.55
2019-03-25T04:19:12.797Z,100173.45
2019-03-25T04:21:45.385Z,100175.69
2019-03-25T04:24:18.933Z,100169.81
2019-03-25T04:26:51.895Z,100165.91
2019-03-25T04:29:24.521Z,100168.88
2019-03-25T04:31:57.080Z,100163.67
2019-03-25T04:34:29.665Z,100166.27
2019-03-25T04:37:02.239Z,100162.44
2019-03-25T04:39:37.901Z,100162.90
2019-03-25T04:42:10.905Z,100156.52
2019-03-25T04:44:43.567Z,100157.22
2019-03-25T04:47:16.159Z,100150.72
2019-03-25T04:49:50.997Z,100144.53
2019-03-25T04:52:23.610Z,100140.86
2019-03-25T04:54:56.241Z,100142.33
2019-03-25T04:57:29.017Z,100158.70
2019-03-25T05:00:01.637Z,100169.24
2019-03-25T05:02:37.214Z,100161.59
2019-03-25T05:05:10.802Z,100161.39
2019-03-25T05:07:43.486Z,100151.81
2019-03-25T05:10:16.670Z,100145.30
2019-03-25T05:12:49.715Z,100149.98
2019-03-25T05:15:22.347Z,100145.03
2019-03-25T05:17:54.927Z,100151.01
2019-03-25T05:20:28.653Z,100150.80
2019-03-25T05:23:01.285Z,100151.44
2019-03-25T05:25:33.840Z,100152.06
2019-03-25T05:28:06.471Z,100146.61
2019-03-25T05:30:39.075Z,100145.17
2019-03-25T05:33:11.662Z,100141.82
2019-03-25T05:35:46.754Z,100134.26
2019-03-25T05:38:18.601Z,100132.85
2019-03-25T05:40:51.220Z,100127.89
2019-03-25T05:43:25.106Z,100120.55
2019-03-25T05:45:57.673Z,100115.48
2019-03-25T05:48:30.267Z,100123.86
2019-03-25T05:51:02.887Z,100119.33
2019-03-25T05:53:35.667Z,100110.12
2019-03-25T05:56:08.252Z,100118.56
2019-03-25T05:58:41.002Z,100111.28
2019-03-25T06:01:13.787Z,100105.16
2019-03-25T06:03:49.448Z,100095.03
2019-03-25T06:06:23.401Z,100093.78
2019-03-25T06:08:55.987Z,100090.94
2019-03-25T06:11:28.567Z,100091.00
2019-03-25T06:14:01.186Z,100086.02
2019-03-25T06:16:33.792Z,100088.29
2019-03-25T06:19:13.271Z,100093.95
2019-03-25T06:21:45.940Z,100091.06
2019-03-25T06:24:18.476Z,100089.97
2019-03-25T06:26:51.396Z,100086.12
2019-03-25T06:29:24.196Z,100091.47
2019-03-25T06:31:56.785Z,100086.69
2019-03-25T06:34:29.357Z,100088.59
2019-03-25T06:37:01.966Z,100086.66
2019-03-25T06:39:37.278Z,100088.75
2019-03-25T06:42:12.294Z,100087.48
2019-03-25T06:44:44.989Z,100091.83
2019-03-25T06:47:17.662Z,100090.01
2019-03-25T06:49:50.266Z,100091.74
2019-03-25T06:52:22.849Z,100088.36
2019-03-25T06:54:55.446Z,100082.44
2019-03-25T06:57:28.055Z,100079.11
2019-03-25T07:00:00.752Z,100076.34
2019-03-25T07:02:33.646Z,100079.11
2019-03-25T07:05:07.462Z,100073.63
2019-03-25T07:07:41.121Z,100072.09
2019-03-25T07:10:18.877Z,100078.06
2019-03-25T07:12:52.661Z,100067.27
2019-03-25T07:15:29.737Z,100066.54
2019-03-25T07:18:02.371Z,100067.28
2019-03-25T07:20:35.051Z,100063.39
2019-03-25T07:23:07.653Z,100061.80
2019-03-25T07:25:40.216Z,100067.50
2019-03-25T07:28:12.815Z,100061.88
2019-03-25T07:30:45.507Z,100061.91
2019-03-25T07:33:19.132Z,100055.38
2019-03-25T07:35:51.702Z,100053.87
2019-03-25T07:38:24.300Z,100056.77
2019-03-25T07:40:57.087Z,100050.67
2019-03-25T07:43:29.782Z,100049.36
2019-03-25T07:46:02.794Z,100044.00
2019-03-25T07:48:36.546Z,100043.97
2019-03-25T07:51:09.178Z,100041.63
2019-03-25T07:53:41.795Z,100039.33
2019-03-25T07:56:14.508Z,100033.87
2019-03-25T07:58:47.281Z,100032.97
2019-03-25T08:01:20.213Z,100028.30
2019-03-25T08:03:52.917Z,100027.66
2019-03-25T08:06:25.505Z,100025.42
2019-03-25T08:09:03.604Z,100020.91
2019-03-25T08:11:32.478Z,100021.36
2019-03-25T08:14:05.275Z,100018.38
2019-03-25T08:16:37.964Z,100013.58
2019-03-25T08:19:10.646Z,100023.64
2019-03-25T08:21:43.198Z,100017.23
2019-03-25T08:24:15.841Z,100016.34
2019-03-25T08:26:48.737Z,100018.97
2019-03-25T08:29:21.525Z,100023.83
2019-03-25T08:31:54.301Z,100019.50
2019-03-25T08:34:26.938Z,100027.77
2019-03-25T08:36:59.762Z,100026.25
2019-03-25T08:39:32.325Z,100022.69
2019-03-25T08:42:04.926Z,100021.11
2019-03-25T08:44:37.539Z,100015.92
2019-03-25T08:47:10.650Z,100019.28
2019-03-25T08:49:43.265Z,100022.72
2019-03-25T08:52:15.887Z,100018.75
2019-03-25T08:54:48.575Z,100023.33
2019-03-25T08:57:21.199Z,100026.16
2019-03-25T08:59:53.837Z,100022.69
2019-03-25T09:02:26.632Z,100022.91
2019-03-25T09:04:59.278Z,100022.16
2019-03-25T09:07:31.858Z,100026.61
2019-03-25T09:10:04.793Z,100028.41
2019-03-25T09:12:37.401Z,100021.33
2019-03-25T09:15:11.332Z,100017.88
2019-03-25T09:17:44.466Z,100013.77
2019-03-25T09:20:18.728Z,100011.05
2019-03-25T09:22:51.450Z,100016.17
2019-03-25T09:25:24.546Z,100018.41
2019-03-25T09:27:58.697Z,100012.91
2019-03-25T09:31:20.103Z,100015.05
2019-03-25T09:33:53.248Z,100010.11
2019-03-25T09:36:25.860Z,100013.81
2019-03-25T09:38:58.449Z,100009.51
2019-03-25T09:41:31.012Z,100009.78
2019-03-25T09:44:03.594Z,100006.28
2019-03-25T09:46:36.196Z,99999.97
2019-03-25T09:49:09.059Z,99995.38
2019-03-25T09:51:41.703Z,99998.86
2019-03-25T09:54:14.294Z,99996.97
2019-03-25T09:56:46.904Z,99989.55
2019-03-25T09:59:19.542Z,99993.20
2019-03-25T10:01:52.277Z,99998.50
2019-03-25T10:08:31.277Z,99985.39
2019-03-25T10:11:03.855Z,99972.11
2019-03-25T10:13:36.497Z,99974.34
2019-03-25T10:16:09.077Z,99980.29
2019-03-25T10:18:41.682Z,99971.33
2019-03-25T10:21:14.250Z,99971.59
2019-03-25T10:23:47.206Z,99970.03
2019-03-25T10:26:19.807Z,99959.34
2019-03-25T10:28:52.375Z,99959.56
2019-03-25T10:31:24.975Z,99960.30
2019-03-25T10:33:57.547Z,99958.39
2019-03-25T10:36:31.692Z,99960.42
2019-03-25T10:39:06.333Z,99959.95
2019-03-25T10:41:38.987Z,99955.30
2019-03-25T10:44:11.677Z,99949.66
2019-03-25T10:46:44.378Z,99956.41
2019-03-25T10:49:16.943Z,99957.70
2019-03-25T10:51:49.782Z,99969.06
2019-03-25T10:54:24.253Z,99963.20
2019-03-25T10:56:56.950Z,99960.76
2019-03-25T10:59:29.775Z,99957.34
2019-03-25T11:02:02.424Z,99951.62
2019-03-25T11:04:35.488Z,99953.55
2019-03-25T11:07:08.173Z,99947.63
2019-03-25T11:09:41.317Z,99949.14
2019-03-25T11:12:13.945Z,99945.91
2019-03-25T11:14:46.567Z,99937.50
2019-03-25T11:17:19.137Z,99933.57
2019-03-25T11:19:51.770Z,99931.42
2019-03-25T11:22:24.346Z,99931.58
2019-03-25T11:24:57.004Z,99932.23
2019-03-25T11:27:29.628Z,99929.22
2019-03-25T11:30:02.250Z,99928.25
2019-03-25T11:32:34.890Z,99929.05
2019-03-25T11:35:08.123Z,99927.53
2019-03-25T11:37:40.693Z,99922.73
2019-03-25T11:40:15.180Z,99921.78
2019-03-25T11:42:47.783Z,99927.28
2019-03-25T11:45:20.480Z,99918.66
2019-03-25T11:47:53.129Z,99919.98
2019-03-25T11:50:25.761Z,99915.06
2019-03-25T11:52:59.593Z,99910.41
2019-03-25T11:55:32.165Z,99909.63
2019-03-25T11:58:04.720Z,99904.09
2019-03-25T12:00:37.402Z,99907.53
2019-03-25T12:03:10.106Z,99910.23
2019-03-25T12:05:42.687Z,99895.16
2019-03-25T12:08:15.405Z,99898.12
2019-03-25T12:10:48.007Z,99897.50
2019-03-25T12:13:20.639Z,99894.44
2019-03-25T12:15:53.246Z,99889.40
2019-03-25T12:18:25.819Z,99894.57
2019-03-25T12:20:58.450Z,99896.14
2019-03-25T12:23:31.044Z,99893.97
2019-03-25T12:26:03.607Z,99898.57
2019-03-25T12:28:36.251Z,99903.82
2019-03-25T12:31:08.834Z,99908.34
2019-03-25T12:33:41.443Z,99901.70
2019-03-25T12:36:14.000Z,99900.02
2019-03-25T12:38:46.549Z,99906.73
2019-03-25T12:41:19.417Z,99900.70
2019-03-25T12:43:52.026Z,99913.31
2019-03-25T12:46:24.891Z,99909.11
2019-03-25T12:48:57.517Z,99918.50
2019-03-25T12:51:31.354Z,99903.91
2019-03-25T12:54:03.978Z,99908.05
2019-03-25T12:56:36.823Z,99904.34
2019-03-25T12:59:09.415Z,99902.22
2019-03-25T13:01:52.446Z,99902.89
2019-03-25T13:04:16.846Z,99903.25
2019-03-25T13:06:49.438Z,99897.84
2019-03-25T13:09:21.997Z,99896.25
2019-03-25T13:11:54.792Z,99899.73
2019-03-25T13:14:27.384Z,99893.52
2019-03-25T13:16:59.989Z,99896.50
2019-03-25T13:19:32.559Z,99894.83
2019-03-25T13:22:05.250Z,99897.95
2019-03-25T13:24:37.955Z,99890.39
2019-03-25T13:27:10.867Z,99892.99
2019-03-25T13:29:52.067Z,99897.81
2019-03-25T13:32:17.858Z,99890.97
2019-03-25T13:34:50.475Z,99885.39
2019-03-25T13:37:23.153Z,99894.92
2019-03-25T13:39:55.761Z,99886.08
2019-03-25T13:42:28.737Z,99879.11
2019-03-25T13:45:01.351Z,99881.17
2019-03-25T13:47:35.331Z,99887.91
2019-03-25T13:50:08.797Z,99889.75
2019-03-25T13:52:41.451Z,99888.98
2019-03-25T13:55:14.097Z,99890.44
2019-03-25T13:57:47.031Z,99891.45
2019-03-25T14:00:36.781Z,99889.89
2019-03-25T14:03:09.629Z,99897.19
2019-03-25T14:05:42.248Z,99902.31
2019-03-25T14:08:15.091Z,99891.67
2019-03-25T14:10:47.691Z,99896.85
2019-03-25T14:13:20.455Z,99890.05
2019-03-25T14:15:53.034Z,99883.00
2019-03-25T14:18:26.015Z,99902.98
2019-03-25T14:20:58.584Z,99899.31
2019-03-25T14:23:31.704Z,99910.31
2019-03-25T14:26:04.280Z,99912.59
2019-03-25T14:28:37.169Z,99921.13
2019-03-25T14:31:09.724Z,99922.50
2019-03-25T14:33:42.502Z,99938.86
2019-03-25T14:36:15.187Z,99934.66
2019-03-25T14:38:47.873Z,99948.84
2019-03-25T14:41:20.474Z,99947.73
2019-03-25T14:43:53.157Z,99948.13
2019-03-25T14:46:25.812Z,99954.44
2019-03-25T14:48:58.493Z,99959.99
2019-03-25T14:51:31.114Z,99962.44
2019-03-25T14:54:03.723Z,99971.95
2019-03-25T14:56:36.323Z,99971.67
2019-03-25T14:59:09.418Z,99980.36
2019-03-25T15:01:42.066Z,99974.69
2019-03-25T15:04:14.725Z,99980.75
2019-03-25T15:06:47.397Z,99981.97
2019-03-25T15:09:23.331Z,99983.27
2019-03-25T15:11:56.070Z,99975.98
2019-03-25T15:14:28.992Z,99982.47
2019-03-25T15:17:01.686Z,99988.58
2019-03-25T15:19:34.821Z,99990.10
2019-03-25T15:22:07.415Z,99994.58
2019-03-25T15:24:40.319Z,99989.06
2019-03-25T15:27:12.947Z,99996.20
2019-03-25T15:29:45.799Z,100000.95
2019-03-25T15:32:18.764Z,99997.41
2019-03-25T15:34:51.769Z,100003.86
2019-03-25T15:37:24.420Z,100007.32
2019-03-25T15:39:57.346Z,100005.88
2019-03-25T15:42:30.064Z,100006.23
2019-03-25T15:45:02.924Z,100007.20
2019-03-25T15:47:35.795Z,100006.45
2019-03-25T15:50:12.144Z,100007.29
2019-03-25T15:52:44.788Z,100010.20
2019-03-25T15:55:17.910Z,100011.79
2019-03-25T15:57:50.637Z,100015.45
2019-03-25T16:00:24.317Z,100012.35
2019-03-25T16:02:58.125Z,100028.83
2019-03-25T16:05:30.752Z,100026.64
2019-03-25T16:08:03.383Z,100021.39
2019-03-25T16:10:36.116Z,100023.79
2019-03-25T16:13:08.710Z,100022.06
2019-03-25T16:15:44.501Z,100021.80
2019-03-25T16:18:41.421Z,100018.72
2019-03-25T16:21:14.412Z,100022.77
2019-03-25T16:23:47.006Z,100023.60
2019-03-25T16:26:19.981Z,100021.55
2019-03-25T16:28:52.679Z,100024.83
2019-03-25T16:31:25.585Z,100032.48
2019-03-25T16:33:58.245Z,100037.63
2019-03-25T16:36:31.112Z,100039.73
2019-03-25T16:39:04.344Z,100035.95
2019-03-25T16:41:39.174Z,100031.20
2019-03-25T16:44:11.779Z,100031.41
2019-03-25T16:46:44.597Z,100035.17
2019-03-25T16:49:17.218Z,100043.08
2019-03-25T16:51:50.097Z,100047.05
2019-03-25T16:54:22.670Z,100056.10
2019-03-25T16:56:55.744Z,100054.65
2019-03-25T16:59:28.320Z,100059.20
2019-03-25T17:02:01.736Z,100062.44
2019-03-25T17:04:34.317Z,100064.77
2019-03-25T17:07:07.012Z,100068.88
2019-03-25T17:09:39.687Z,100070.94
2019-03-25T17:12:12.642Z,100068.36
2019-03-25T17:14:45.311Z,100074.41
2019-03-25T17:17:18.815Z,100079.31
2019-03-25T17:19:51.414Z,100078.27
2019-03-25T17:22:54.574Z,100085.25
2019-03-25T17:25:27.615Z,100083.27
2019-03-25T17:28:00.725Z,100084.37
2019-03-25T17:30:33.695Z,100085.13
2019-03-25T17:33:07.134Z,100088.13
2019-03-25T17:35:39.798Z,100091.18
2019-03-25T17:38:12.494Z,100094.95
2019-03-25T17:40:45.179Z,100099.77
2019-03-25T17:43:17.954Z,100101.69
2019-03-25T17:45:50.592Z,100113.64
2019-03-25T17:48:23.658Z,100115.20
2019-03-25T17:50:56.271Z,100126.39
2019-03-25T17:53:28.970Z,100127.98
2019-03-25T17:56:01.566Z,100136.27
2019-03-25T17:58:34.470Z,100149.45
2019-03-25T18:01:35.375Z,100160.56
2019-03-25T18:04:08.208Z,100160.95
2019-03-25T18:06:41.147Z,100163.39
2019-03-25T18:09:13.887Z,100172.37
2019-03-25T18:11:47.424Z,100177.59
2019-03-25T18:14:20.209Z,100183.22
2019-03-25T18:16:52.912Z,100186.52
2019-03-25T18:19:25.827Z,100190.69
2019-03-25T18:21:58.536Z,100182.61
2019-03-25T18:24:31.587Z,100197.24
2019-03-25T18:27:04.296Z,100183.73
2019-03-25T18:29:37.046Z,100181.77
2019-03-25T18:32:09.826Z,100185.61
2019-03-25T18:34:42.776Z,100188.51
2019-03-25T18:37:15.549Z,100195.41
2019-03-25T18:39:48.328Z,100191.64
2019-03-25T18:42:20.947Z,100198.53
2019-03-25T18:44:53.864Z,100193.78
2019-03-25T18:47:26.506Z,100185.49
2019-03-25T18:49:59.431Z,100194.39
2019-03-25T18:52:32.056Z,100200.97
2019-03-25T18:55:04.819Z,100198.97
2019-03-25T18:57:37.816Z,100201.24
2019-03-25T19:00:12.822Z,100205.83
2019-03-25T19:02:45.470Z,100213.02
2019-03-25T19:05:18.873Z,100209.95
2019-03-25T19:07:51.721Z,100211.99
2019-03-25T19:10:30.273Z,100214.80
2019-03-25T19:13:03.151Z,100218.00
2019-03-25T19:15:36.062Z,100222.11
2019-03-25T19:18:08.657Z,100231.77
2019-03-25T19:20:42.108Z,100231.95
2019-03-25T19:23:14.812Z,100232.31
2019-03-25T19:25:47.806Z,100240.33
2019-03-25T19:28:20.443Z,100243.92
2019-03-25T19:30:53.162Z,100256.08
2019-03-25T19:33:25.886Z,100262.88
2019-03-25T19:35:58.945Z,100263.47
2019-03-25T19:38:31.750Z,100268.27
2019-03-25T19:41:04.538Z,100274.14
2019-03-25T19:43:37.145Z,100282.47
2019-03-25T19:46:10.022Z,100281.48
2019-03-25T19:48:42.715Z,100284.55
2019-03-25T19:51:15.459Z,100286.75
2019-03-25T19:53:48.276Z,100286.16
2019-03-25T19:56:21.103Z,100286.56
2019-03-25T19:58:53.920Z,100295.85
2019-03-25T20:01:26.906Z,100294.67
2019-03-25T20:03:59.637Z,100295.07
2019-03-25T20:06:32.344Z,100295.32
2019-03-25T20:09:07.057Z,100303.22
2019-03-25T20:11:39.918Z,100303.53
2019-03-25T20:14:12.702Z,100303.47
2019-03-25T20:16:45.526Z,100313.42
2019-03-25T20:19:18.192Z,100317.38
2019-03-25T20:21:51.001Z,100311.86
2019-03-25T20:24:23.666Z,100316.78
2019-03-25T20:26:56.720Z,100319.91
2019-03-25T20:29:29.463Z,100326.94
2019-03-25T20:32:02.638Z,100329.48
2019-03-25T20:34:37.708Z,100335.52
2019-03-25T20:37:10.275Z,100342.37
2019-03-25T20:39:43.234Z,100340.78
2019-03-25T20:42:16.226Z,100337.84
2019-03-25T20:44:48.923Z,100344.81
2019-03-25T20:47:21.891Z,100354.28
2019-03-25T20:49:54.593Z,100348.71
2019-03-25T20:52:27.374Z,100363.08
2019-03-25T20:55:00.468Z,100364.02
2019-03-25T20:57:33.744Z,100358.16
2019-03-25T21:00:08.503Z,100361.45
2019-03-25T21:02:45.406Z,100372.05
2019-03-25T21:05:17.646Z,100373.89
2019-03-25T21:07:51.809Z,100374.03
2019-03-25T21:10:24.602Z,100378.09
2019-03-25T21:12:57.334Z,100381.38
2019-03-25T21:15:29.995Z,100378.05
2019-03-25T21:18:02.831Z,100391.27
2019-03-25T21:20:35.467Z,100393.44
2019-03-25T21:23:08.212Z,100402.23
2019-03-25T21:25:40.956Z,100405.07
2019-03-25T21:28:13.916Z,100409.50
2019-03-25T21:30:48.094Z,100407.93
2019-03-25T21:33:22.343Z,100404.59
2019-03-25T21:35:56.305Z,100408.82
2019-03-25T21:38:29.003Z,100406.30
2019-03-25T21:41:01.725Z,100411.61
2019-03-25T21:43:34.424Z,100413.42
2019-03-25T21:46:07.099Z,100419.66
2019-03-25T21:48:40.139Z,100418.82
2019-03-25T21:51:12.848Z,100419.15
2019-03-25T21:53:45.995Z,100420.45
2019-03-25T21:56:18.807Z,100422.20
2019-03-25T21:58:51.635Z,100419.84
2019-03-25T22:01:24.389Z,100423.05
2019-03-25T22:03:57.156Z,100429.23
2019-03-25T22:06:29.838Z,100440.92
2019-03-25T22:09:02.968Z,100438.84
2019-03-25T22:11:35.647Z,100445.33
2019-03-25T22:14:08.570Z,100442.88
2019-03-25T22:16:41.286Z,100445.02
2019-03-25T22:19:14.260Z,100447.79
2019-03-25T22:21:46.883Z,100459.53
2019-03-25T22:24:20.211Z,100459.58
2019-03-25T22:26:52.863Z,100454.15
2019-03-25T22:29:25.776Z,100456.42
2019-03-25T22:31:58.487Z,100453.59
2019-03-25T22:34:31.355Z,100456.70
2019-03-25T22:37:03.943Z,100457.58
2019-03-25T22:39:37.318Z,100457.58
2019-03-25T22:42:09.903Z,100455.78
2019-03-25T22:44:42.778Z,100461.19
2019-03-25T22:47:15.402Z,100464.72
2019-03-25T22:49:48.112Z,100467.77
2019-03-25T22:52:20.799Z,100470.51
2019-03-25T22:54:53.939Z,100476.70
2019-03-25T22:57:26.533Z,100478.46
2019-03-25T22:59:59.394Z,100480.09
2019-03-25T23:02:31.959Z,100483.58
2019-03-25T23:05:04.952Z,100485.79
2019-03-25T23:07:37.542Z,100486.77
2019-03-25T23:10:10.826Z,100498.86
2019-03-25T23:12:43.461Z,100498.11
2019-03-25T23:15:16.280Z,100507.15
2019-03-25T23:17:48.866Z,100513.22
2019-03-25T23:20:21.743Z,100510.33
2019-03-25T23:22:54.332Z,100511.22
2019-03-25T23:25:27.532Z,100513.81
2019-03-25T23:28:00.104Z,100516.49
2019-03-25T23:30:32.825Z,100523.39
2019-03-25T23:33:06.510Z,100517.04
2019-03-25T23:35:39.373Z,100531.77
2019-03-25T23:38:12.051Z,100536.20
2019-03-25T23:40:45.244Z,100539.25
2019-03-25T23:43:17.821Z,100542.77
2019-03-25T23:45:50.506Z,100548.51
2019-03-25T23:48:23.149Z,100547.34
2019-03-25T23:50:56.062Z,100549.59
2019-03-25T23:53:28.694Z,100551.31
2019-03-25T23:56:01.935Z,100553.64
2019-03-25T23:58:34.513Z,100548.95
